createdAt,value
2017-03-27T00:00:49.111Z,6.97
2017-03-27T00:02:00.508Z,6.91
2017-03-27T00:03:11.492Z,6.88
2017-03-27T00:04:22.699Z,6.85
2017-03-27T00:05:33.690Z,6.82
2017-03-27T00:06:44.680Z,6.85
2017-03-27T00:07:55.875Z,6.85
2017-03-27T00:09:06.871Z,6.76
2017-03-27T00:10:17.857Z,6.83
2017-03-27T00:11:29.292Z,6.85
2017-03-27T00:12:40.502Z,6.83
2017-03-27T00:13:51.493Z,6.85
2017-03-27T00:15:02.485Z,6.82
2017-03-27T00:16:13.468Z,6.79
2017-03-27T00:17:24.462Z,6.85
2017-03-27T00:18:35.451Z,6.79
2017-03-27T00:19:46.450Z,6.85
2017-03-27T00:20:57.649Z,6.79
2017-03-27T00:22:09.084Z,6.68
2017-03-27T00:23:20.076Z,6.76
2017-03-27T00:24:31.058Z,6.73
2017-03-27T00:25:42.035Z,6.75
2017-03-27T00:26:53.023Z,6.62
2017-03-27T00:28:04.058Z,6.61
2017-03-27T00:29:15.041Z,6.62
2017-03-27T00:30:26.027Z,6.67
2017-03-27T00:31:37.211Z,6.61
2017-03-27T00:32:48.207Z,6.61
2017-03-27T00:33:59.208Z,6.54
2017-03-27T00:35:10.389Z,6.54
2017-03-27T00:36:21.584Z,6.47
2017-03-27T00:37:32.769Z,6.49
2017-03-27T00:38:43.764Z,6.51
2017-03-27T00:39:54.751Z,6.42
2017-03-27T00:41:05.984Z,6.44
2017-03-27T00:42:16.972Z,6.4
2017-03-27T00:43:28.416Z,6.37
2017-03-27T00:44:39.399Z,6.4
2017-03-27T00:45:50.587Z,6.36
2017-03-27T00:47:01.576Z,6.34
2017-03-27T00:48:12.562Z,6.37
2017-03-27T00:49:23.569Z,6.37
2017-03-27T00:50:34.556Z,6.31
2017-03-27T00:51:45.550Z,6.37
2017-03-27T00:52:56.535Z,6.36
2017-03-27T00:54:07.775Z,6.28
2017-03-27T00:55:18.772Z,6.25
2017-03-27T00:56:30.166Z,6.26
2017-03-27T00:57:41.165Z,6.25
2017-03-27T00:58:52.163Z,6.2
2017-03-27T01:00:03.161Z,6.29
2017-03-27T01:01:14.143Z,6.26
2017-03-27T01:02:25.127Z,6.24
2017-03-27T01:03:36.151Z,6.14
2017-03-27T01:04:47.590Z,6.24
2017-03-27T01:05:58.577Z,6.15
2017-03-27T01:07:09.562Z,6.2
2017-03-27T01:08:20.549Z,6.2
2017-03-27T01:09:31.547Z,6.14
2017-03-27T01:10:42.529Z,6.15
2017-03-27T01:11:53.731Z,6.09
2017-03-27T01:13:04.717Z,6.14
2017-03-27T01:14:15.708Z,6.05
2017-03-27T01:15:26.699Z,6.1
2017-03-27T01:16:37.889Z,6.07
2017-03-27T01:17:48.875Z,6.13
2017-03-27T01:18:59.882Z,6.06
2017-03-27T01:20:11.122Z,6.09
2017-03-27T01:21:22.105Z,5.92
2017-03-27T01:22:33.297Z,6
2017-03-27T01:23:44.293Z,5.96
2017-03-27T01:24:55.295Z,5.91
2017-03-27T01:26:06.490Z,5.92
2017-03-27T01:27:17.475Z,5.91
2017-03-27T01:28:28.455Z,5.89
2017-03-27T01:29:39.448Z,5.89
2017-03-27T01:30:50.440Z,5.85
2017-03-27T01:32:01.625Z,5.85
2017-03-27T01:33:12.612Z,5.81
2017-03-27T01:34:23.611Z,5.82
2017-03-27T01:35:34.654Z,5.78
2017-03-27T01:36:45.644Z,5.69
2017-03-27T01:37:56.627Z,5.72
2017-03-27T01:39:07.622Z,5.75
2017-03-27T01:40:18.822Z,5.64
2017-03-27T01:41:30.010Z,5.75
2017-03-27T01:42:40.985Z,5.77
2017-03-27T01:43:51.977Z,5.62
2017-03-27T01:45:02.971Z,5.72
2017-03-27T01:46:13.945Z,5.7
2017-03-27T01:47:25.141Z,5.64
2017-03-27T01:48:36.134Z,5.67
2017-03-27T01:49:47.325Z,5.55
2017-03-27T01:50:58.515Z,5.57
2017-03-27T01:52:09.503Z,5.51
2017-03-27T01:53:20.501Z,5.59
2017-03-27T01:54:31.524Z,5.54
2017-03-27T01:55:42.706Z,5.54
2017-03-27T01:56:53.781Z,5.55
2017-03-27T01:58:04.966Z,5.55
2017-03-27T01:59:15.954Z,5.49
2017-03-27T02:00:27.166Z,5.52
2017-03-27T02:01:38.147Z,5.52
2017-03-27T02:02:49.129Z,5.51
2017-03-27T02:04:00.126Z,5.46
2017-03-27T02:05:11.313Z,5.41
2017-03-27T02:06:22.505Z,5.52
2017-03-27T02:07:33.489Z,5.52
2017-03-27T02:08:44.478Z,5.52
2017-03-27T02:09:55.467Z,5.44
2017-03-27T02:11:06.455Z,5.37
2017-03-27T02:12:17.434Z,5.37
2017-03-27T02:13:28.418Z,5.31
2017-03-27T02:14:39.407Z,5.34
2017-03-27T02:15:50.396Z,5.34
2017-03-27T02:17:01.383Z,5.33
2017-03-27T02:18:12.369Z,5.28
2017-03-27T02:19:23.361Z,5.21
2017-03-27T02:20:34.547Z,5.28
2017-03-27T02:21:45.789Z,5.3
2017-03-27T02:22:56.773Z,5.31
2017-03-27T02:24:07.992Z,5.26
2017-03-27T02:25:19.171Z,5.28
2017-03-27T02:26:30.157Z,5.24
2017-03-27T02:27:41.143Z,5.21
2017-03-27T02:28:52.339Z,5.23
2017-03-27T02:30:03.325Z,5.08
2017-03-27T02:31:14.311Z,5.1
2017-03-27T02:32:25.299Z,5.06
2017-03-27T02:33:36.282Z,5.1
2017-03-27T02:34:47.476Z,5.05
2017-03-27T02:35:58.675Z,5.13
2017-03-27T02:37:09.711Z,5.13
2017-03-27T02:38:20.703Z,5.02
2017-03-27T02:39:31.896Z,5.03
2017-03-27T02:40:42.891Z,5.03
2017-03-27T02:41:53.873Z,5
2017-03-27T02:43:04.865Z,4.97
2017-03-27T02:44:15.854Z,5.06
2017-03-27T02:45:26.840Z,5.03
2017-03-27T02:46:37.821Z,4.98
2017-03-27T02:47:48.808Z,4.91
2017-03-27T02:48:59.811Z,4.94
2017-03-27T02:50:11.020Z,4.94
2017-03-27T02:51:22.008Z,4.9
2017-03-27T02:52:33.050Z,4.87
2017-03-27T02:53:44.238Z,4.83
2017-03-27T02:54:55.257Z,4.88
2017-03-27T02:56:06.249Z,4.84
2017-03-27T02:57:17.233Z,4.78
2017-03-27T02:58:28.630Z,4.76
2017-03-27T02:59:39.816Z,4.87
2017-03-27T03:00:51.009Z,4.79
2017-03-27T03:02:02.001Z,4.79
2017-03-27T03:03:12.994Z,4.85
2017-03-27T03:04:23.983Z,4.76
2017-03-27T03:05:34.971Z,4.76
2017-03-27T03:06:45.960Z,4.75
2017-03-27T03:07:57.004Z,4.75
2017-03-27T03:09:08.202Z,4.68
2017-03-27T03:10:19.403Z,4.61
2017-03-27T03:11:30.592Z,4.58
2017-03-27T03:12:41.586Z,4.6
2017-03-27T03:13:52.580Z,4.61
2017-03-27T03:15:03.569Z,4.48
2017-03-27T03:16:14.552Z,4.53
2017-03-27T03:17:25.536Z,4.61
2017-03-27T03:18:36.974Z,4.56
2017-03-27T03:19:48.373Z,4.6
2017-03-27T03:20:59.359Z,4.54
2017-03-27T03:22:10.353Z,4.5
2017-03-27T03:23:21.346Z,4.46
2017-03-27T03:24:32.346Z,4.42
2017-03-27T03:25:43.342Z,4.5
2017-03-27T03:26:54.325Z,4.48
2017-03-27T03:28:05.317Z,4.47
2017-03-27T03:29:16.353Z,4.53
2017-03-27T03:30:27.549Z,4.48
2017-03-27T03:31:38.537Z,4.5
2017-03-27T03:32:49.926Z,4.48
2017-03-27T03:34:00.915Z,4.51
2017-03-27T03:35:11.901Z,4.48
2017-03-27T03:36:22.890Z,4.44
2017-03-27T03:37:33.890Z,4.5
2017-03-27T03:38:44.877Z,4.47
2017-03-27T03:39:55.927Z,4.38
2017-03-27T03:41:06.937Z,4.36
2017-03-27T03:42:17.921Z,4.39
2017-03-27T03:43:29.112Z,4.38
2017-03-27T03:44:40.297Z,4.26
2017-03-27T03:45:51.281Z,4.36
2017-03-27T03:47:02.266Z,4.33
2017-03-27T03:48:13.253Z,4.28
2017-03-27T03:49:24.253Z,4.21
2017-03-27T03:50:35.233Z,4.2
2017-03-27T03:51:46.221Z,4.2
2017-03-27T03:52:57.211Z,4.2
2017-03-27T03:54:08.202Z,4.2
2017-03-27T03:55:19.436Z,4.24
2017-03-27T03:56:30.419Z,4.2
2017-03-27T03:57:41.416Z,4.11
2017-03-27T03:58:52.407Z,4.12
2017-03-27T04:00:03.396Z,4.08
2017-03-27T04:01:14.380Z,4.11
2017-03-27T04:02:25.569Z,4.12
2017-03-27T04:03:36.566Z,4.12
2017-03-27T04:04:47.758Z,4.12
2017-03-27T04:05:58.807Z,4.12
2017-03-27T04:07:09.800Z,4.12
2017-03-27T04:08:20.988Z,4.08
2017-03-27T04:09:31.987Z,4.03
2017-03-27T04:10:42.984Z,3.99
2017-03-27T04:11:53.975Z,3.99
2017-03-27T04:13:04.971Z,3.94
2017-03-27T04:14:15.974Z,3.89
2017-03-27T04:15:26.959Z,3.89
2017-03-27T04:16:38.000Z,3.92
2017-03-27T04:17:48.988Z,3.85
2017-03-27T04:18:59.977Z,3.81
2017-03-27T04:20:10.973Z,3.75
2017-03-27T04:21:21.963Z,3.82
2017-03-27T04:22:33.153Z,3.76
2017-03-27T04:23:44.145Z,3.84
2017-03-27T04:24:55.141Z,3.81
2017-03-27T04:26:06.135Z,3.69
2017-03-27T04:27:17.117Z,3.66
2017-03-27T04:28:28.105Z,3.72
2017-03-27T04:29:39.106Z,3.79
2017-03-27T04:30:50.088Z,3.76
2017-03-27T04:32:01.081Z,3.76
2017-03-27T04:33:12.070Z,3.74
2017-03-27T04:34:23.064Z,3.71
2017-03-27T04:35:34.066Z,3.74
2017-03-27T04:36:45.054Z,3.71
2017-03-27T04:37:56.040Z,3.71
2017-03-27T04:39:07.033Z,3.66
2017-03-27T04:40:18.217Z,3.63
2017-03-27T04:41:29.200Z,3.64
2017-03-27T04:42:40.189Z,3.61
2017-03-27T04:43:51.387Z,3.63
2017-03-27T04:45:02.376Z,3.72
2017-03-27T04:46:13.355Z,3.69
2017-03-27T04:47:24.590Z,3.56
2017-03-27T04:48:35.591Z,3.6
2017-03-27T04:49:46.575Z,3.56
2017-03-27T04:50:57.771Z,3.57
2017-03-27T04:52:08.956Z,3.51
2017-03-27T04:53:19.936Z,3.51
2017-03-27T04:54:30.926Z,3.48
2017-03-27T04:55:41.908Z,3.48
2017-03-27T04:56:52.895Z,3.48
2017-03-27T04:58:04.157Z,3.56
2017-03-27T04:59:15.155Z,3.45
2017-03-27T05:00:26.142Z,3.32
2017-03-27T05:01:37.120Z,3.46
2017-03-27T05:02:48.319Z,3.35
2017-03-27T05:03:59.502Z,3.49
2017-03-27T05:05:10.503Z,3.37
2017-03-27T05:06:21.687Z,3.54
2017-03-27T05:07:32.882Z,3.43
2017-03-27T05:08:43.882Z,3.4
2017-03-27T05:09:54.877Z,3.35
2017-03-27T05:11:06.063Z,3.39
2017-03-27T05:12:17.447Z,3.4
2017-03-27T05:13:28.696Z,3.37
2017-03-27T05:14:39.691Z,3.42
2017-03-27T05:15:50.674Z,3.42
2017-03-27T05:17:01.664Z,3.27
2017-03-27T05:18:12.651Z,3.4
2017-03-27T05:19:23.842Z,3.42
2017-03-27T05:20:34.829Z,3.43
2017-03-27T05:21:46.019Z,3.45
2017-03-27T05:22:57.001Z,3.37
2017-03-27T05:24:08.200Z,3.29
2017-03-27T05:25:19.195Z,3.32
2017-03-27T05:26:30.197Z,3.45
2017-03-27T05:27:41.196Z,3.42
2017-03-27T05:28:52.426Z,3.4
2017-03-27T05:30:03.422Z,3.39
2017-03-27T05:31:14.406Z,3.37
2017-03-27T05:32:25.427Z,3.37
2017-03-27T05:33:36.423Z,3.34
2017-03-27T05:34:47.411Z,3.45
2017-03-27T05:35:58.403Z,3.4
2017-03-27T05:37:09.396Z,3.48
2017-03-27T05:38:20.388Z,3.56
2017-03-27T05:39:31.582Z,3.57
2017-03-27T05:40:42.567Z,3.79
2017-03-27T05:41:53.553Z,3.96
2017-03-27T05:43:04.542Z,4.18
2017-03-27T05:44:15.532Z,4.39
2017-03-27T05:45:26.516Z,4.64
2017-03-27T05:46:37.509Z,5
2017-03-27T05:47:48.909Z,5.23
2017-03-27T05:49:00.112Z,5.48
2017-03-27T05:50:11.101Z,5.54
2017-03-27T05:51:22.285Z,5.69
2017-03-27T05:52:33.274Z,5.73
2017-03-27T05:53:44.255Z,5.99
2017-03-27T05:54:55.490Z,6.18
2017-03-27T05:56:06.673Z,6.25
2017-03-27T05:57:17.652Z,6.47
2017-03-27T05:58:28.837Z,6.61
2017-03-27T05:59:39.838Z,6.76
2017-03-27T06:00:50.829Z,6.82
2017-03-27T06:02:01.808Z,6.8
2017-03-27T06:03:12.794Z,6.76
2017-03-27T06:04:23.794Z,6.86
2017-03-27T06:05:34.786Z,6.91
2017-03-27T06:06:45.767Z,6.97
2017-03-27T06:07:56.755Z,6.93
2017-03-27T06:09:07.751Z,6.94
2017-03-27T06:10:18.956Z,6.98
2017-03-27T06:11:30.192Z,7.21
2017-03-27T06:12:41.187Z,7.37
2017-03-27T06:13:52.190Z,7.44
2017-03-27T06:15:03.188Z,7.56
2017-03-27T06:16:14.186Z,7.54
2017-03-27T06:17:25.170Z,7.55
2017-03-27T06:18:36.368Z,7.49
2017-03-27T06:19:47.358Z,7.39
2017-03-27T06:20:58.343Z,7.58
2017-03-27T06:22:09.338Z,7.75
2017-03-27T06:23:20.328Z,7.83
2017-03-27T06:24:31.320Z,8.01
2017-03-27T06:25:42.319Z,8.07
2017-03-27T06:26:53.305Z,8.26
2017-03-27T06:28:04.503Z,8.36
2017-03-27T06:29:15.503Z,8.42
2017-03-27T06:30:26.490Z,8.57
2017-03-27T06:31:37.535Z,8.71
2017-03-27T06:32:48.535Z,8.85
2017-03-27T06:33:59.543Z,9.03
2017-03-27T06:35:10.742Z,8.98
2017-03-27T06:36:21.739Z,9.19
2017-03-27T06:37:32.737Z,9.32
2017-03-27T06:38:43.724Z,9.41
2017-03-27T06:39:54.722Z,9.38
2017-03-27T06:41:05.913Z,9.38
2017-03-27T06:42:16.961Z,9.42
2017-03-27T06:43:27.957Z,9.44
2017-03-27T06:44:38.949Z,9.42
2017-03-27T06:45:49.941Z,9.55
2017-03-27T06:47:00.932Z,9.56
2017-03-27T06:48:11.924Z,9.67
2017-03-27T06:49:22.918Z,9.84
2017-03-27T06:50:33.920Z,10.17
2017-03-27T06:51:44.909Z,10.39
2017-03-27T06:52:55.903Z,10.84
2017-03-27T06:54:06.905Z,11.23
2017-03-27T06:55:17.894Z,11.68
2017-03-27T06:56:28.886Z,11.86
2017-03-27T06:57:39.884Z,12.31
2017-03-27T06:58:50.885Z,12.56
2017-03-27T07:00:01.929Z,13.09
2017-03-27T07:01:12.922Z,13.39
2017-03-27T07:02:24.147Z,13.79
2017-03-27T07:03:35.423Z,13.97
2017-03-27T07:04:46.423Z,14.23
2017-03-27T07:05:57.636Z,14.48
2017-03-27T07:07:08.646Z,14.74
2017-03-27T07:08:19.651Z,14.94
2017-03-27T07:09:30.866Z,15.15
2017-03-27T07:10:41.869Z,15.23
2017-03-27T07:11:52.874Z,15.53
2017-03-27T07:13:04.089Z,15.93
2017-03-27T07:14:15.761Z,15.95
2017-03-27T07:15:26.766Z,16.07
2017-03-27T07:16:37.772Z,16.11
2017-03-27T07:17:48.778Z,15.99
2017-03-27T07:18:59.792Z,16.39
2017-03-27T07:20:10.793Z,16.44
2017-03-27T07:21:21.802Z,16.45
2017-03-27T07:22:33.015Z,16.66
2017-03-27T07:23:44.037Z,16.58
2017-03-27T07:24:55.311Z,16.58
2017-03-27T07:26:06.328Z,16.42
2017-03-27T07:27:17.333Z,16.44
2017-03-27T07:28:28.374Z,16.34
2017-03-27T07:29:39.395Z,16.39
2017-03-27T07:30:50.449Z,16.42
2017-03-27T07:32:01.460Z,16.42
2017-03-27T07:33:12.681Z,16.27
2017-03-27T07:34:23.698Z,16.06
2017-03-27T07:35:34.710Z,15.89
2017-03-27T07:36:45.739Z,15.84
2017-03-27T07:37:56.741Z,15.91
2017-03-27T07:39:07.969Z,15.89
2017-03-27T07:40:19.000Z,15.81
2017-03-27T07:41:30.010Z,16.06
2017-03-27T07:42:41.102Z,16.07
2017-03-27T07:43:52.125Z,16.16
2017-03-27T07:45:03.328Z,16.3
2017-03-27T07:46:14.336Z,16.54
2017-03-27T07:47:25.338Z,16.9
2017-03-27T07:48:36.354Z,17.03
2017-03-27T07:49:47.368Z,17.07
2017-03-27T07:50:58.373Z,17.25
2017-03-27T07:52:09.628Z,17.55
2017-03-27T07:53:20.636Z,17.49
2017-03-27T07:54:31.654Z,17.71
2017-03-27T07:55:42.871Z,17.94
2017-03-27T07:56:54.083Z,17.92
2017-03-27T07:58:05.299Z,17.94
2017-03-27T07:59:16.313Z,18.08
2017-03-27T08:00:27.333Z,18.24
2017-03-27T08:01:38.537Z,18.53
2017-03-27T08:02:49.609Z,18.47
2017-03-27T08:04:00.651Z,18.5
2017-03-27T08:05:11.666Z,18.39
2017-03-27T08:06:22.877Z,18.6
2017-03-27T08:07:33.882Z,18.81
2017-03-27T08:08:44.886Z,18.75
2017-03-27T08:09:55.904Z,18.87
2017-03-27T08:11:06.921Z,19.07
2017-03-27T08:12:17.930Z,19.15
2017-03-27T08:13:29.156Z,19.37
2017-03-27T08:14:40.375Z,19.34
2017-03-27T08:15:51.388Z,19.42
2017-03-27T08:17:02.606Z,19.57
2017-03-27T08:18:13.619Z,19.63
2017-03-27T08:19:24.643Z,19.8
2017-03-27T08:20:35.666Z,19.86
2017-03-27T08:21:46.682Z,19.95
2017-03-27T08:22:57.893Z,20.1
2017-03-27T08:24:09.167Z,19.79
2017-03-27T08:25:20.381Z,19.68
2017-03-27T08:26:31.392Z,19.63
2017-03-27T08:27:42.410Z,19.92
2017-03-27T08:28:53.437Z,20.04
2017-03-27T08:30:04.460Z,20.26
2017-03-27T08:31:15.479Z,20.38
2017-03-27T08:32:26.498Z,20.64
2017-03-27T08:33:37.510Z,20.91
2017-03-27T08:34:48.773Z,20.94
2017-03-27T08:35:59.795Z,20.78
2017-03-27T08:37:10.816Z,20.85
2017-03-27T08:38:21.839Z,20.82
2017-03-27T08:39:32.859Z,20.79
2017-03-27T08:40:43.868Z,20.98
2017-03-27T08:41:54.900Z,20.79
2017-03-27T08:43:05.918Z,20.67
2017-03-27T08:44:16.939Z,20.64
2017-03-27T08:45:28.206Z,20.85
2017-03-27T08:46:39.221Z,21
2017-03-27T08:47:50.230Z,20.93
2017-03-27T08:49:01.262Z,20.64
2017-03-27T08:50:12.293Z,20.6
2017-03-27T08:51:23.322Z,20.37
2017-03-27T08:52:34.363Z,20.15
2017-03-27T08:53:45.382Z,20.22
2017-03-27T08:54:56.406Z,20.42
2017-03-27T08:56:07.426Z,20.57
2017-03-27T08:57:18.425Z,20.67
2017-03-27T08:58:29.446Z,20.74
2017-03-27T08:59:40.471Z,20.82
2017-03-27T09:00:51.687Z,21.01
2017-03-27T09:02:03.018Z,21.4
2017-03-27T09:03:14.043Z,21.36
2017-03-27T09:04:25.060Z,21.19
2017-03-27T09:05:36.075Z,21.11
2017-03-27T09:06:47.086Z,21.15
2017-03-27T09:07:58.105Z,21.45
2017-03-27T09:09:09.127Z,21.49
2017-03-27T09:10:20.149Z,21.37
2017-03-27T09:11:31.569Z,21.33
2017-03-27T09:12:42.593Z,21.43
2017-03-27T09:13:53.818Z,21.61
2017-03-27T09:15:04.831Z,21.62
2017-03-27T09:16:16.099Z,21.52
2017-03-27T09:17:27.117Z,21.55
2017-03-27T09:18:38.141Z,21.74
2017-03-27T09:19:49.356Z,21.7
2017-03-27T09:21:00.373Z,21.58
2017-03-27T09:22:11.396Z,21.45
2017-03-27T09:23:22.432Z,21.62
2017-03-27T09:24:33.457Z,21.77
2017-03-27T09:25:44.468Z,21.7
2017-03-27T09:26:55.492Z,21.71
2017-03-27T09:28:06.517Z,21.77
2017-03-27T09:29:17.530Z,21.97
2017-03-27T09:30:28.541Z,22.04
2017-03-27T09:31:39.556Z,21.8
2017-03-27T09:32:50.570Z,21.58
2017-03-27T09:34:01.598Z,21.53
2017-03-27T09:35:12.618Z,21.66
2017-03-27T09:36:23.624Z,21.76
2017-03-27T09:37:34.629Z,21.94
2017-03-27T09:38:45.654Z,22.38
2017-03-27T09:39:56.715Z,22.49
2017-03-27T09:41:07.728Z,22.26
2017-03-27T09:42:18.743Z,22.11
2017-03-27T09:43:29.772Z,22.26
2017-03-27T09:44:40.815Z,22.38
2017-03-27T09:45:51.865Z,22.52
2017-03-27T09:47:03.125Z,22.49
2017-03-27T09:48:14.148Z,22.48
2017-03-27T09:49:25.162Z,22.34
2017-03-27T09:50:36.171Z,22.55
2017-03-27T09:51:47.384Z,22.59
2017-03-27T09:52:58.401Z,22.59
2017-03-27T09:54:09.419Z,22.81
2017-03-27T09:55:20.450Z,22.76
2017-03-27T09:56:31.467Z,22.99
2017-03-27T09:57:42.487Z,23.15
2017-03-27T09:58:53.701Z,23.26
2017-03-27T10:00:04.726Z,23.21
2017-03-27T10:01:15.740Z,23.06
2017-03-27T10:02:26.803Z,23.04
2017-03-27T10:03:37.888Z,23.04
2017-03-27T10:04:48.942Z,22.81
2017-03-27T10:05:59.964Z,22.54
2017-03-27T10:07:10.991Z,22.26
2017-03-27T10:08:22.216Z,21.94
2017-03-27T10:09:33.237Z,21.94
2017-03-27T10:10:44.250Z,22.12
2017-03-27T10:11:55.252Z,22.42
2017-03-27T10:13:06.473Z,22.55
2017-03-27T10:14:17.486Z,22.3
2017-03-27T10:15:28.509Z,22.51
2017-03-27T10:16:39.518Z,22.57
2017-03-27T10:17:50.531Z,22.61
2017-03-27T10:19:01.803Z,22.66
2017-03-27T10:20:12.829Z,22.61
2017-03-27T10:21:23.847Z,22.52
2017-03-27T10:22:34.867Z,22.51
2017-03-27T10:23:45.917Z,22.48
2017-03-27T10:24:56.950Z,22
2017-03-27T10:26:07.969Z,21.74
2017-03-27T10:27:18.985Z,21.76
2017-03-27T10:28:30.055Z,21.86
2017-03-27T10:29:41.078Z,21.74
2017-03-27T10:30:52.095Z,21.59
2017-03-27T10:32:03.316Z,21.68
2017-03-27T10:33:14.349Z,21.8
2017-03-27T10:34:25.765Z,22.26
2017-03-27T10:35:36.777Z,22.52
2017-03-27T10:36:47.991Z,22.63
2017-03-27T10:37:59.008Z,22.64
2017-03-27T10:39:10.027Z,22.7
2017-03-27T10:40:21.051Z,22.76
2017-03-27T10:41:32.057Z,22.75
2017-03-27T10:42:43.271Z,22.69
2017-03-27T10:43:54.296Z,22.64
2017-03-27T10:45:05.309Z,22.51
2017-03-27T10:46:16.318Z,22.57
2017-03-27T10:47:27.333Z,22.44
2017-03-27T10:48:38.362Z,22.75
2017-03-27T10:49:49.378Z,22.85
2017-03-27T10:51:00.394Z,23.14
2017-03-27T10:52:11.422Z,22.86
2017-03-27T10:53:22.439Z,22.75
2017-03-27T10:54:33.460Z,22.63
2017-03-27T10:55:44.473Z,22.57
2017-03-27T10:56:55.693Z,22.54
2017-03-27T10:58:06.710Z,22.59
2017-03-27T10:59:17.975Z,22.54
2017-03-27T11:00:29.006Z,22.59
2017-03-27T11:01:40.018Z,22.91
2017-03-27T11:02:51.242Z,23.25
2017-03-27T11:04:02.258Z,23.56
2017-03-27T11:05:13.294Z,23.87
2017-03-27T11:06:24.303Z,23.75
2017-03-27T11:07:35.312Z,23.55
2017-03-27T11:08:46.322Z,23.5
2017-03-27T11:09:57.392Z,23.28
2017-03-27T11:11:08.413Z,23.03
2017-03-27T11:12:19.414Z,23.12
2017-03-27T11:13:30.430Z,23.19
2017-03-27T11:14:41.451Z,23
2017-03-27T11:15:52.461Z,23.01
2017-03-27T11:17:03.468Z,23.34
2017-03-27T11:18:14.520Z,23.57
2017-03-27T11:19:25.546Z,23.77
2017-03-27T11:20:36.558Z,23.63
2017-03-27T11:21:47.570Z,23.6
2017-03-27T11:22:58.593Z,23.22
2017-03-27T11:24:09.605Z,23.25
2017-03-27T11:25:21.024Z,23.44
2017-03-27T11:26:32.277Z,23.7
2017-03-27T11:27:43.300Z,24.02
2017-03-27T11:28:54.514Z,24.08
2017-03-27T11:30:05.728Z,24.19
2017-03-27T11:31:16.737Z,24.19
2017-03-27T11:32:27.751Z,23.99
2017-03-27T11:33:38.763Z,23.75
2017-03-27T11:34:49.776Z,23.57
2017-03-27T11:36:01.053Z,23.38
2017-03-27T11:37:12.270Z,23.5
2017-03-27T11:38:23.285Z,23.57
2017-03-27T11:39:34.295Z,23.56
2017-03-27T11:40:45.316Z,23.25
2017-03-27T11:41:56.534Z,23.38
2017-03-27T11:43:07.543Z,23.57
2017-03-27T11:44:18.573Z,23.59
2017-03-27T11:45:29.612Z,23.6
2017-03-27T11:46:40.893Z,23.6
2017-03-27T11:47:52.103Z,23.57
2017-03-27T11:49:03.164Z,23.22
2017-03-27T11:50:14.389Z,23
2017-03-27T11:51:25.405Z,22.61
2017-03-27T11:52:36.430Z,22.48
2017-03-27T11:53:47.670Z,22.39
2017-03-27T11:54:58.916Z,22.45
2017-03-27T11:56:10.150Z,22.75
2017-03-27T11:57:21.639Z,23.18
2017-03-27T11:58:32.670Z,23.62
2017-03-27T11:59:43.674Z,23.55
2017-03-27T12:00:54.692Z,23.62
2017-03-27T12:02:05.740Z,23.55
2017-03-27T12:03:16.791Z,23.48
2017-03-27T12:04:28.009Z,23.48
2017-03-27T12:05:39.035Z,23.79
2017-03-27T12:06:50.440Z,23.85
2017-03-27T12:08:01.458Z,23.97
2017-03-27T12:09:12.716Z,24.09
2017-03-27T12:10:23.725Z,24.08
2017-03-27T12:11:34.748Z,24.27
2017-03-27T12:12:45.753Z,24.21
2017-03-27T12:15:07.738Z,24.32
2017-03-27T12:16:18.747Z,24.02
2017-03-27T12:17:29.786Z,24.09
2017-03-27T12:18:41.045Z,23.85
2017-03-27T12:19:52.062Z,23.44
2017-03-27T12:21:03.094Z,23.32
2017-03-27T12:22:14.330Z,23.1
2017-03-27T12:23:25.345Z,23.1
2017-03-27T12:24:36.347Z,22.84
2017-03-27T12:25:47.577Z,22.81
2017-03-27T12:26:58.608Z,22.91
2017-03-27T12:28:09.618Z,23.24
2017-03-27T12:29:20.921Z,23.25
2017-03-27T12:30:31.927Z,23.5
2017-03-27T12:31:42.928Z,23.82
2017-03-27T12:32:53.982Z,23.92
2017-03-27T12:34:05.047Z,24.17
2017-03-27T12:35:16.057Z,24.59
2017-03-27T12:36:27.287Z,24.56
2017-03-27T12:37:38.314Z,24.33
2017-03-27T12:38:49.582Z,24.12
2017-03-27T12:40:00.667Z,23.85
2017-03-27T12:41:11.914Z,23.6
2017-03-27T12:42:22.940Z,23.5
2017-03-27T12:43:33.966Z,23.26
2017-03-27T12:44:45.182Z,23.14
2017-03-27T12:45:56.201Z,23.12
2017-03-27T12:47:07.200Z,22.92
2017-03-27T12:48:18.224Z,22.66
2017-03-27T12:49:29.294Z,22.51
2017-03-27T12:50:40.347Z,22.52
2017-03-27T12:51:51.565Z,22.61
2017-03-27T12:53:02.568Z,22.66
2017-03-27T12:54:13.796Z,22.59
2017-03-27T12:55:24.822Z,22.59
2017-03-27T12:56:35.859Z,22.57
2017-03-27T12:57:46.895Z,22.67
2017-03-27T12:58:58.105Z,22.69
2017-03-27T13:00:09.316Z,22.27
2017-03-27T13:01:20.372Z,22.26
2017-03-27T13:02:31.404Z,22.22
2017-03-27T13:03:42.438Z,22.12
2017-03-27T13:04:53.435Z,22.18
2017-03-27T13:06:04.444Z,22.11
2017-03-27T13:07:15.442Z,22.11
2017-03-27T13:08:26.642Z,22
2017-03-27T13:09:37.664Z,21.97
2017-03-27T13:10:48.666Z,21.89
2017-03-27T13:12:00.135Z,21.82
2017-03-27T13:13:11.163Z,21.82
2017-03-27T13:14:22.376Z,21.68
2017-03-27T13:15:33.376Z,21.73
2017-03-27T13:16:44.369Z,21.58
2017-03-27T13:17:55.581Z,21.55
2017-03-27T13:19:06.627Z,21.61
2017-03-27T13:20:17.625Z,21.48
2017-03-27T13:21:28.638Z,21.56
2017-03-27T13:22:39.844Z,21.49
2017-03-27T13:23:51.056Z,21.58
2017-03-27T13:25:02.069Z,21.43
2017-03-27T13:26:13.082Z,21.09
2017-03-27T13:27:24.075Z,21.04
2017-03-27T13:28:35.333Z,21.09
2017-03-27T13:29:46.335Z,21.09
2017-03-27T13:30:57.333Z,20.96
2017-03-27T13:32:08.337Z,21.03
2017-03-27T13:33:19.328Z,21.09
2017-03-27T13:34:30.362Z,21.03
2017-03-27T13:35:41.574Z,21.08
2017-03-27T13:36:52.591Z,20.91
2017-03-27T13:38:03.847Z,21.01
2017-03-27T13:39:14.856Z,20.98
2017-03-27T13:40:25.853Z,20.93
2017-03-27T13:41:36.860Z,20.83
2017-03-27T13:42:48.264Z,20.82
2017-03-27T13:43:59.273Z,20.79
2017-03-27T13:45:10.275Z,20.88
2017-03-27T13:46:21.291Z,20.93
2017-03-27T13:47:32.493Z,21.08
2017-03-27T13:48:43.757Z,20.88
2017-03-27T13:49:54.762Z,20.79
2017-03-27T13:51:05.782Z,20.79
2017-03-27T13:52:16.777Z,20.81
2017-03-27T13:53:27.967Z,20.83
2017-03-27T13:54:38.968Z,20.82
2017-03-27T13:55:49.963Z,20.72
2017-03-27T13:57:00.980Z,20.6
2017-03-27T13:58:12.172Z,20.58
2017-03-27T13:59:23.668Z,20.3
2017-03-27T14:00:34.666Z,20.3
2017-03-27T14:01:45.863Z,20.08
2017-03-27T14:02:56.852Z,19.93
2017-03-27T14:04:08.247Z,19.89
2017-03-27T14:05:19.248Z,20.04
2017-03-27T14:06:30.265Z,19.95
2017-03-27T14:07:41.266Z,19.95
2017-03-27T14:08:52.471Z,19.92
2017-03-27T14:10:03.945Z,19.93
2017-03-27T14:11:14.934Z,19.98
2017-03-27T14:12:26.329Z,19.93
2017-03-27T14:13:37.527Z,19.97
2017-03-27T14:14:48.737Z,19.85
2017-03-27T14:15:59.946Z,19.68
2017-03-27T14:17:11.140Z,19.64
2017-03-27T14:18:22.560Z,19.72
2017-03-27T14:19:33.567Z,19.71
2017-03-27T14:20:44.610Z,19.67
2017-03-27T14:21:55.606Z,19.7
2017-03-27T14:23:06.609Z,19.68
2017-03-27T14:24:17.810Z,19.64
2017-03-27T14:25:28.803Z,19.67
2017-03-27T14:26:40.212Z,19.68
2017-03-27T14:27:51.216Z,19.65
2017-03-27T14:29:02.411Z,19.79
2017-03-27T14:30:13.414Z,19.65
2017-03-27T14:31:24.472Z,19.65
2017-03-27T14:32:35.476Z,19.65
2017-03-27T14:33:46.473Z,19.64
2017-03-27T14:34:57.683Z,19.67
2017-03-27T14:36:08.694Z,19.79
2017-03-27T14:37:19.702Z,19.7
2017-03-27T14:38:30.696Z,19.6
2017-03-27T14:39:41.697Z,19.46
2017-03-27T14:40:52.894Z,19.38
2017-03-27T14:42:04.120Z,19.38
2017-03-27T14:43:15.115Z,19.42
2017-03-27T14:44:26.117Z,19.37
2017-03-27T14:45:37.119Z,19.47
2017-03-27T14:46:48.116Z,19.43
2017-03-27T14:47:59.131Z,19.38
2017-03-27T14:49:10.395Z,19.31
2017-03-27T14:50:21.417Z,19.3
2017-03-27T14:51:32.617Z,19.24
2017-03-27T14:52:43.823Z,19.12
2017-03-27T14:53:55.013Z,19.1
2017-03-27T14:55:06.242Z,19.13
2017-03-27T14:56:17.239Z,18.96
2017-03-27T14:57:28.248Z,18.94
2017-03-27T14:58:39.508Z,18.91
2017-03-27T14:59:50.908Z,19.13
2017-03-27T15:01:01.915Z,19.12
2017-03-27T15:02:12.912Z,19.07
2017-03-27T15:03:23.943Z,19.1
2017-03-27T15:04:34.966Z,19.13
2017-03-27T15:05:45.965Z,18.99
2017-03-27T15:06:56.965Z,18.79
2017-03-27T15:08:07.964Z,18.78
2017-03-27T15:09:19.214Z,18.79
2017-03-27T15:10:30.211Z,18.86
2017-03-27T15:11:41.219Z,18.82
2017-03-27T15:12:52.224Z,18.84
2017-03-27T15:14:03.233Z,18.91
2017-03-27T15:15:14.435Z,18.94
2017-03-27T15:16:25.437Z,19.02
2017-03-27T15:17:36.633Z,18.97
2017-03-27T15:18:47.636Z,18.93
2017-03-27T15:19:58.656Z,18.86
2017-03-27T15:21:09.644Z,18.93
2017-03-27T15:22:20.642Z,18.93
2017-03-27T15:23:31.842Z,18.81
2017-03-27T15:24:42.851Z,18.96
2017-03-27T15:25:53.845Z,18.93
2017-03-27T15:27:04.846Z,18.97
2017-03-27T15:28:16.038Z,18.93
2017-03-27T15:29:27.040Z,18.9
2017-03-27T15:30:38.042Z,18.79
2017-03-27T15:31:49.288Z,18.66
2017-03-27T15:33:00.304Z,18.54